createdAt,value
2023-05-15T00:02:22.598Z,80.60
2023-05-15T00:04:49.935Z,80.90
2023-05-15T00:07:16.688Z,80.30
2023-05-15T00:09:43.400Z,79.10
2023-05-15T00:12:10.022Z,79.00
2023-05-15T00:14:36.834Z,79.60
2023-05-15T00:17:03.415Z,79.50
2023-05-15T00:19:29.991Z,80.80
2023-05-15T00:21:56.609Z,79.00
2023-05-15T00:24:23.209Z,81.50
2023-05-15T00:26:50.031Z,80.10
2023-05-15T00:29:16.582Z,80.30
2023-05-15T00:31:43.279Z,80.60
2023-05-15T00:34:09.898Z,82.20
2023-05-15T00:36:36.544Z,81.40
2023-05-15T00:39:03.131Z,83.00
2023-05-15T00:41:32.035Z,83.50
2023-05-15T00:44:01.987Z,82.60
2023-05-15T00:46:30.735Z,82.60
2023-05-15T00:48:58.018Z,83.10
2023-05-15T00:51:26.085Z,83.20
2023-05-15T00:53:53.356Z,85.50
2023-05-15T00:56:21.381Z,85.90
2023-05-15T00:58:48.781Z,85.20
2023-05-15T01:01:16.476Z,86.40
2023-05-15T01:03:43.532Z,88.10
2023-05-15T01:06:10.679Z,87.10
2023-05-15T01:08:43.735Z,87.20
2023-05-15T01:11:11.689Z,86.90
2023-05-15T01:13:38.247Z,86.80
2023-05-15T01:16:05.151Z,87.00
2023-05-15T01:18:32.582Z,89.00
2023-05-15T01:21:03.090Z,90.60
2023-05-15T01:23:29.652Z,90.80
2023-05-15T01:26:05.589Z,90.90
2023-05-15T01:28:33.734Z,91.10
2023-05-15T01:31:06.044Z,90.80
2023-05-15T01:33:34.625Z,90.80
2023-05-15T01:36:05.959Z,91.00
2023-05-15T01:38:39.782Z,91.20
2023-05-15T01:41:10.818Z,92.10
2023-05-15T01:43:40.149Z,91.70
2023-05-15T01:46:07.629Z,91.50
2023-05-15T01:48:36.419Z,91.40
2023-05-15T01:51:04.708Z,91.00
2023-05-15T01:53:32.248Z,91.30
2023-05-15T01:55:59.089Z,90.70
2023-05-15T01:58:26.670Z,90.30
2023-05-15T02:00:53.757Z,89.20
2023-05-15T02:03:21.091Z,89.80
2023-05-15T02:05:48.201Z,89.20
2023-05-15T02:08:15.593Z,88.30
2023-05-15T02:10:43.022Z,88.80
2023-05-15T02:13:09.738Z,88.60
2023-05-15T02:15:37.136Z,87.60
2023-05-15T02:18:03.906Z,86.90
2023-05-15T02:20:30.560Z,86.40
2023-05-15T02:22:57.142Z,87.60
2023-05-15T02:25:31.380Z,86.40
2023-05-15T02:28:00.293Z,86.30
2023-05-15T02:30:38.259Z,86.30
2023-05-15T02:33:12.298Z,87.30
2023-05-15T02:35:46.750Z,88.50
2023-05-15T02:38:16.251Z,88.00
2023-05-15T02:40:44.069Z,87.50
2023-05-15T02:43:11.339Z,88.00
2023-05-15T02:45:38.240Z,88.00
2023-05-15T02:48:05.257Z,87.70
2023-05-15T02:50:32.007Z,86.90
2023-05-15T02:53:04.987Z,86.30
2023-05-15T02:55:31.854Z,88.50
2023-05-15T02:57:58.849Z,87.60
2023-05-15T03:00:25.657Z,88.00
2023-05-15T03:02:53.186Z,87.60
2023-05-15T03:05:19.820Z,86.50
2023-05-15T03:07:46.361Z,87.10
2023-05-15T03:10:12.913Z,87.90
2023-05-15T03:12:39.562Z,88.60
2023-05-15T03:15:06.828Z,89.40
2023-05-15T03:17:33.450Z,89.70
2023-05-15T03:20:00.127Z,90.30
2023-05-15T03:22:26.670Z,91.90
2023-05-15T03:24:53.216Z,90.60
2023-05-15T03:27:19.758Z,89.80
2023-05-15T03:29:46.340Z,89.60
2023-05-15T03:32:12.913Z,88.40
2023-05-15T03:34:41.067Z,89.40
2023-05-15T03:37:07.952Z,90.00
2023-05-15T03:39:34.553Z,90.20
2023-05-15T03:42:01.086Z,90.50
2023-05-15T03:44:27.697Z,90.40
2023-05-15T03:46:54.653Z,90.20
2023-05-15T03:49:21.298Z,90.40
2023-05-15T03:51:47.855Z,90.20
2023-05-15T03:54:14.427Z,89.80
2023-05-15T03:56:41.059Z,89.20
2023-05-15T03:59:07.673Z,89.70
2023-05-15T04:01:40.947Z,90.40
2023-05-15T04:04:10.828Z,90.90
2023-05-15T04:06:37.621Z,91.30
2023-05-15T04:09:04.179Z,91.00
2023-05-15T04:11:31.763Z,91.50
2023-05-15T04:13:58.315Z,92.80
2023-05-15T04:16:24.941Z,91.60
2023-05-15T04:18:51.539Z,91.40
2023-05-15T04:21:18.104Z,91.60
2023-05-15T04:23:44.682Z,91.60
2023-05-15T04:26:11.593Z,91.60
2023-05-15T04:28:38.182Z,91.70
2023-05-15T04:31:04.734Z,91.70
2023-05-15T04:33:31.444Z,91.70
2023-05-15T04:35:58.102Z,91.70
2023-05-15T04:38:24.697Z,91.20
2023-05-15T04:40:51.775Z,91.10
2023-05-15T04:43:18.499Z,91.40
2023-05-15T04:45:45.093Z,91.70
2023-05-15T04:48:11.673Z,91.40
2023-05-15T04:50:38.244Z,91.50
2023-05-15T04:53:04.847Z,91.00
2023-05-15T04:55:32.389Z,90.60
2023-05-15T04:58:00.228Z,90.60
2023-05-15T05:00:27.476Z,90.60
2023-05-15T05:02:54.170Z,90.60
2023-05-15T05:05:20.766Z,90.30
2023-05-15T05:07:47.437Z,90.00
2023-05-15T05:10:14.016Z,91.80
2023-05-15T05:12:41.083Z,89.00
2023-05-15T05:15:08.009Z,89.90
2023-05-15T05:17:34.679Z,89.50
2023-05-15T05:20:01.332Z,89.80
2023-05-15T05:22:27.900Z,90.00
2023-05-15T05:24:54.527Z,89.60
2023-05-15T05:27:21.809Z,89.00
2023-05-15T05:29:48.385Z,87.00
2023-05-15T05:32:14.952Z,86.60
2023-05-15T05:34:41.593Z,83.30
2023-05-15T05:37:08.184Z,83.50
2023-05-15T05:39:34.902Z,81.70
2023-05-15T05:42:01.443Z,79.60
2023-05-15T05:44:27.984Z,79.50
2023-05-15T05:46:54.779Z,75.80
2023-05-15T05:49:21.407Z,72.70
2023-05-15T05:51:48.052Z,71.60
2023-05-15T05:54:15.050Z,70.50
2023-05-15T05:56:44.826Z,68.30
2023-05-15T05:59:11.382Z,61.90
2023-05-15T06:01:38.102Z,57.10
2023-05-15T06:04:04.973Z,49.20
2023-05-15T06:06:31.694Z,44.10
2023-05-15T06:08:58.292Z,39.00
2023-05-15T06:11:25.664Z,34.60
2023-05-15T06:13:52.779Z,24.20
2023-05-15T06:16:19.551Z,21.40
2023-05-15T06:18:46.225Z,20.00
2023-05-15T06:21:12.822Z,19.50
2023-05-15T06:23:39.392Z,17.30
2023-05-15T06:26:05.995Z,15.70
2023-05-15T06:28:32.640Z,10.50
2023-05-15T06:30:59.240Z,11.10
2023-05-15T06:33:25.887Z,8.80
2023-05-15T06:35:52.555Z,5.00
2023-05-15T06:38:19.131Z,6.20
2023-05-15T06:40:45.977Z,6.40
2023-05-15T06:43:13.152Z,4.20
2023-05-15T06:45:39.800Z,2.30
2023-05-15T06:48:06.474Z,1.00
2023-05-15T06:50:33.104Z,1.00
2023-05-15T06:52:59.663Z,1.00
2023-05-15T06:55:26.510Z,1.00
2023-05-15T06:57:53.350Z,1.00
2023-05-15T07:00:20.061Z,1.00
2023-05-15T07:02:46.705Z,1.00
2023-05-15T07:10:08.267Z,1.00
2023-05-15T07:12:34.862Z,1.00
2023-05-15T07:15:01.435Z,1.00
2023-05-15T07:17:29.832Z,1.00
2023-05-15T07:19:56.525Z,1.00
2023-05-15T07:22:23.336Z,1.00
2023-05-15T07:24:50.036Z,1.00
2023-05-15T07:27:16.682Z,1.00
2023-05-15T07:29:43.375Z,1.00
2023-05-15T07:32:09.992Z,1.00
2023-05-15T07:34:36.585Z,1.00
2023-05-15T07:37:03.111Z,1.00
2023-05-15T07:39:29.821Z,1.00
2023-05-15T07:41:56.493Z,1.00
2023-05-15T07:44:23.081Z,1.00
2023-05-15T07:46:49.677Z,1.00
2023-05-15T07:49:16.336Z,1.00
2023-05-15T07:51:43.306Z,1.00
2023-05-15T07:56:37.715Z,1.00
2023-05-15T07:59:04.361Z,1.00
2023-05-15T08:01:32.686Z,1.00
2023-05-15T08:03:59.683Z,1.00
2023-05-15T08:06:26.994Z,1.00
2023-05-15T08:08:53.554Z,1.00
2023-05-15T08:11:20.199Z,1.00
2023-05-15T08:13:46.909Z,1.00
2023-05-15T08:16:13.563Z,1.00
2023-05-15T08:18:40.294Z,1.00
2023-05-15T08:21:06.959Z,1.00
2023-05-15T08:23:33.516Z,1.00
2023-05-15T08:26:00.042Z,1.00
2023-05-15T08:28:26.655Z,1.00
2023-05-15T08:30:53.242Z,1.00
2023-05-15T08:33:20.081Z,1.00
2023-05-15T08:35:46.659Z,1.00
2023-05-15T08:38:13.423Z,1.00
2023-05-15T08:40:41.225Z,1.00
2023-05-15T08:43:16.075Z,1.00
2023-05-15T08:45:43.078Z,1.00
2023-05-15T08:48:11.427Z,1.00
2023-05-15T08:50:38.646Z,1.00
2023-05-15T08:53:05.247Z,1.00
2023-05-15T08:55:31.965Z,1.00
2023-05-15T08:57:58.657Z,1.00
2023-05-15T09:00:26.698Z,1.00
2023-05-15T09:02:53.870Z,1.00
2023-05-15T09:05:20.614Z,1.00
2023-05-15T09:07:47.468Z,1.00
2023-05-15T09:10:14.154Z,1.00
2023-05-15T09:12:43.507Z,1.00
2023-05-15T09:15:13.637Z,1.00
2023-05-15T09:17:40.674Z,1.00
2023-05-15T09:20:08.425Z,1.00
2023-05-15T09:22:35.561Z,1.00
2023-05-15T09:25:04.071Z,1.00
2023-05-15T09:27:30.915Z,1.00
2023-05-15T09:30:08.210Z,1.00
2023-05-15T09:32:34.865Z,1.00
2023-05-15T09:35:01.648Z,1.00
2023-05-15T09:37:29.971Z,1.00
2023-05-15T09:40:06.444Z,1.00
2023-05-15T09:42:34.255Z,1.00
2023-05-15T09:45:00.800Z,1.00
2023-05-15T09:47:27.476Z,1.00
2023-05-15T09:49:54.213Z,1.00
2023-05-15T09:52:23.141Z,1.00
2023-05-15T09:54:50.590Z,1.00
2023-05-15T09:57:21.330Z,1.00
2023-05-15T09:59:48.258Z,1.00
2023-05-15T10:02:22.777Z,1.00
2023-05-15T10:04:56.795Z,1.00
2023-05-15T10:07:34.488Z,1.00
2023-05-15T10:10:04.928Z,1.00
2023-05-15T10:12:32.312Z,1.00
2023-05-15T10:15:00.722Z,1.00
2023-05-15T10:17:28.218Z,1.00
2023-05-15T10:19:59.099Z,1.00
2023-05-15T10:22:28.702Z,1.00
2023-05-15T10:25:04.941Z,1.00
2023-05-15T10:27:32.250Z,1.00
2023-05-15T10:30:00.246Z,1.00
2023-05-15T10:32:27.351Z,1.00
2023-05-15T10:34:54.393Z,1.00
2023-05-15T10:37:21.495Z,1.00
2023-05-15T10:39:48.299Z,1.00
2023-05-15T10:42:15.069Z,1.00
2023-05-15T10:44:42.070Z,1.00
2023-05-15T10:47:09.256Z,1.00
2023-05-15T10:49:36.248Z,1.00
2023-05-15T10:52:03.095Z,1.00
2023-05-15T10:54:29.988Z,1.00
2023-05-15T10:56:56.972Z,1.00
2023-05-15T10:59:30.295Z,1.00
2023-05-15T11:01:56.912Z,1.00
2023-05-15T11:04:23.836Z,1.00
2023-05-15T11:06:50.831Z,1.00
2023-05-15T11:09:27.750Z,1.00
2023-05-15T11:11:58.303Z,1.00
2023-05-15T11:14:25.625Z,1.00
2023-05-15T11:16:55.250Z,1.00
2023-05-15T11:19:31.236Z,1.00
2023-05-15T11:22:16.424Z,1.00
2023-05-15T11:24:52.245Z,1.00
2023-05-15T11:27:20.519Z,1.00
2023-05-15T11:30:05.975Z,1.00
2023-05-15T11:32:40.634Z,1.00
2023-05-15T11:35:10.924Z,1.00
2023-05-15T11:37:38.258Z,1.00
2023-05-15T11:40:06.064Z,1.00
2023-05-15T11:42:32.792Z,1.00
2023-05-15T11:44:59.637Z,1.00
2023-05-15T11:47:26.276Z,1.00
2023-05-15T11:49:52.853Z,1.00
2023-05-15T11:52:19.492Z,1.00
2023-05-15T11:54:46.837Z,1.00
2023-05-15T11:57:13.394Z,1.00
2023-05-15T11:59:39.949Z,1.00
2023-05-15T12:02:06.474Z,1.00
2023-05-15T12:04:34.099Z,1.00
2023-05-15T12:07:03.187Z,1.00
2023-05-15T12:09:30.118Z,1.00
2023-05-15T12:11:56.825Z,1.00
2023-05-15T12:14:29.925Z,1.00
2023-05-15T12:17:04.502Z,1.00
2023-05-15T12:19:31.256Z,1.00
2023-05-15T12:21:57.843Z,1.00
2023-05-15T12:24:24.386Z,1.00
2023-05-15T12:26:50.957Z,1.00
2023-05-15T12:29:17.550Z,1.00
2023-05-15T12:31:44.484Z,1.00
2023-05-15T12:34:11.355Z,1.00
2023-05-15T12:36:40.807Z,1.00
2023-05-15T12:39:08.056Z,1.00
2023-05-15T12:41:36.695Z,1.00
2023-05-15T12:44:03.367Z,1.00
2023-05-15T12:46:30.413Z,1.00
2023-05-15T12:49:00.290Z,1.00
2023-05-15T12:51:27.659Z,1.00
2023-05-15T12:53:54.524Z,1.00
2023-05-15T12:56:21.452Z,1.00
2023-05-15T12:58:48.134Z,1.00
2023-05-15T13:01:15.841Z,1.00
2023-05-15T13:03:44.416Z,1.00
2023-05-15T13:06:11.146Z,1.00
2023-05-15T13:08:41.964Z,1.00
2023-05-15T13:11:12.991Z,1.00
2023-05-15T13:13:41.309Z,1.00
2023-05-15T13:16:17.260Z,1.00
2023-05-15T13:18:44.257Z,1.00
2023-05-15T13:21:11.002Z,1.00
2023-05-15T13:23:37.534Z,1.00
2023-05-15T13:26:04.226Z,1.00
2023-05-15T13:28:30.798Z,1.00
2023-05-15T13:30:57.421Z,1.00
2023-05-15T13:33:25.357Z,1.00
2023-05-15T13:35:52.880Z,1.00
2023-05-15T13:38:19.553Z,1.00
2023-05-15T13:40:46.104Z,1.00
2023-05-15T13:43:12.708Z,1.00
2023-05-15T13:45:39.355Z,1.00
2023-05-15T13:48:06.004Z,1.00
2023-05-15T13:50:32.719Z,1.00
2023-05-15T13:52:59.758Z,1.00
2023-05-15T13:55:26.306Z,1.00
2023-05-15T13:57:53.542Z,1.00
2023-05-15T14:00:20.213Z,1.00
2023-05-15T14:02:46.914Z,1.00
2023-05-15T14:05:14.342Z,1.00
2023-05-15T14:07:41.343Z,1.00
2023-05-15T14:10:08.289Z,1.00
2023-05-15T14:12:34.889Z,1.00
2023-05-15T14:15:01.409Z,1.00
2023-05-15T14:17:28.299Z,1.00
2023-05-15T14:19:54.948Z,1.00
2023-05-15T14:22:24.662Z,1.00
2023-05-15T14:24:52.297Z,1.00
2023-05-15T14:27:19.228Z,1.00
2023-05-15T14:29:45.925Z,1.00
2023-05-15T14:32:12.622Z,1.00
2023-05-15T14:34:39.195Z,1.00
2023-05-15T14:37:05.752Z,1.00
2023-05-15T14:39:32.808Z,1.00
2023-05-15T14:41:59.423Z,1.00
2023-05-15T14:44:26.026Z,1.00
2023-05-15T14:47:09.307Z,1.00
2023-05-15T14:49:36.395Z,1.00
2023-05-15T14:52:03.537Z,1.00
2023-05-15T14:54:30.116Z,1.00
2023-05-15T14:56:57.679Z,1.00
2023-05-15T14:59:24.934Z,1.00
2023-05-15T15:01:51.575Z,1.00
2023-05-15T15:04:18.265Z,1.00
2023-05-15T15:06:44.970Z,1.00
2023-05-15T15:09:11.726Z,1.00
2023-05-15T15:11:38.254Z,1.00
2023-05-15T15:14:04.894Z,1.00
2023-05-15T15:16:31.510Z,1.00
2023-05-15T15:18:58.096Z,1.00
2023-05-15T15:21:24.731Z,1.00
2023-05-15T15:23:51.611Z,1.00
2023-05-15T15:26:18.215Z,1.00
2023-05-15T15:28:44.782Z,1.00
2023-05-15T15:31:12.227Z,1.00
2023-05-15T15:33:38.898Z,1.00
2023-05-15T15:36:05.659Z,1.00
2023-05-15T15:43:26.522Z,1.00
2023-05-15T15:50:47.499Z,1.00
2023-05-15T15:53:14.161Z,1.00
2023-05-15T15:55:40.828Z,1.00
2023-05-15T15:58:07.399Z,1.00
2023-05-15T16:00:34.067Z,1.00
2023-05-15T16:03:00.808Z,1.00
2023-05-15T16:10:21.487Z,1.00
2023-05-15T16:12:48.066Z,1.00
2023-05-15T16:15:23.287Z,1.00
2023-05-15T16:17:52.539Z,1.00
2023-05-15T16:22:46.810Z,1.00
2023-05-15T16:25:13.377Z,1.00
2023-05-15T16:27:39.921Z,1.00
2023-05-15T16:30:06.803Z,1.00
2023-05-15T16:32:34.235Z,1.00
2023-05-15T16:35:01.012Z,1.00
2023-05-15T16:37:27.586Z,1.00
2023-05-15T16:39:54.230Z,1.00
2023-05-15T16:42:20.816Z,1.00
2023-05-15T16:44:47.710Z,1.00
2023-05-15T16:47:14.255Z,1.00
2023-05-15T16:49:44.020Z,1.00
2023-05-15T16:52:11.223Z,1.00
2023-05-15T16:54:37.912Z,1.00
2023-05-15T16:57:04.701Z,1.00
2023-05-15T16:59:31.585Z,1.00
2023-05-15T17:01:59.270Z,1.00
2023-05-15T17:04:25.980Z,1.00
2023-05-15T17:06:53.346Z,1.00
2023-05-15T17:09:21.286Z,1.00
2023-05-15T17:14:14.722Z,1.00
2023-05-15T17:16:41.561Z,1.00
2023-05-15T17:19:08.208Z,1.00
2023-05-15T17:21:37.280Z,1.00
2023-05-15T17:24:03.988Z,1.00
2023-05-15T17:26:30.590Z,1.00
2023-05-15T17:28:57.132Z,1.00
2023-05-15T17:31:23.826Z,1.00
2023-05-15T17:33:50.403Z,1.00
2023-05-15T17:36:18.473Z,1.00
2023-05-15T17:38:45.036Z,1.00
2023-05-15T17:41:11.729Z,1.00
2023-05-15T17:43:38.245Z,1.00
2023-05-15T17:46:06.574Z,1.00
2023-05-15T17:48:33.504Z,1.00
2023-05-15T17:51:00.175Z,1.00
2023-05-15T17:53:26.908Z,1.00
2023-05-15T17:55:53.698Z,1.00
2023-05-15T17:58:21.219Z,1.00
2023-05-15T18:00:47.959Z,1.00
2023-05-15T18:03:14.702Z,1.00
2023-05-15T18:05:41.418Z,1.00
2023-05-15T18:08:08.040Z,1.00
2023-05-15T18:10:34.550Z,1.00
2023-05-15T18:13:01.155Z,1.00
2023-05-15T18:15:27.968Z,1.00
2023-05-15T18:17:54.824Z,1.00
2023-05-15T18:20:21.759Z,1.00
2023-05-15T18:22:49.495Z,1.00
2023-05-15T18:25:16.142Z,1.00
2023-05-15T18:27:43.033Z,1.00
2023-05-15T18:30:09.853Z,1.00
2023-05-15T18:32:36.656Z,1.00
2023-05-15T18:35:03.386Z,1.00
2023-05-15T18:37:30.289Z,1.00
2023-05-15T18:39:58.581Z,1.00
2023-05-15T18:42:25.581Z,1.00
2023-05-15T18:44:52.129Z,1.00
2023-05-15T18:47:18.937Z,1.00
2023-05-15T18:49:45.604Z,1.00
2023-05-15T18:52:12.452Z,1.00
2023-05-15T18:54:40.208Z,1.00
2023-05-15T18:57:08.030Z,1.00
2023-05-15T18:59:34.828Z,1.00
2023-05-15T19:02:01.462Z,1.00
2023-05-15T19:04:28.076Z,1.00
2023-05-15T19:06:54.647Z,1.00
2023-05-15T19:09:21.292Z,1.00
2023-05-15T19:11:49.586Z,1.00
2023-05-15T19:14:17.845Z,1.00
2023-05-15T19:16:44.957Z,1.30
2023-05-15T19:19:11.726Z,4.70
2023-05-15T19:21:38.811Z,4.70
2023-05-15T19:24:06.039Z,4.60
2023-05-15T19:26:32.635Z,4.30
2023-05-15T19:28:59.265Z,4.50
2023-05-15T19:31:31.246Z,4.50
2023-05-15T19:33:59.114Z,2.30
2023-05-15T19:36:25.869Z,4.80
2023-05-15T19:38:52.696Z,3.10
2023-05-15T19:41:19.286Z,1.00
2023-05-15T19:43:47.008Z,1.00
2023-05-15T19:46:13.892Z,1.00
2023-05-15T19:48:40.605Z,1.00
2023-05-15T19:51:07.298Z,1.00
2023-05-15T19:53:34.116Z,1.00
2023-05-15T19:56:00.818Z,1.00
2023-05-15T19:58:27.473Z,1.00
2023-05-15T20:00:54.268Z,1.00
2023-05-15T20:03:21.695Z,4.30
2023-05-15T20:05:48.529Z,4.40
2023-05-15T20:08:17.050Z,3.80
2023-05-15T20:10:44.450Z,4.90
2023-05-15T20:13:11.634Z,6.40
2023-05-15T20:15:40.084Z,7.60
2023-05-15T20:18:06.984Z,8.90
2023-05-15T20:20:33.618Z,7.70
2023-05-15T20:23:00.187Z,6.40
2023-05-15T20:25:27.957Z,8.00
2023-05-15T20:27:56.961Z,7.30
2023-05-15T20:30:24.251Z,7.90
2023-05-15T20:32:51.503Z,8.20
2023-05-15T20:35:18.127Z,9.40
2023-05-15T20:37:45.457Z,10.70
2023-05-15T20:40:13.122Z,11.80
2023-05-15T20:42:40.008Z,13.80
2023-05-15T20:45:08.554Z,13.80
2023-05-15T20:47:35.886Z,15.00
2023-05-15T20:50:02.678Z,16.50
2023-05-15T20:52:29.788Z,16.70
2023-05-15T20:54:56.334Z,18.70
2023-05-15T20:57:22.899Z,19.60
2023-05-15T20:59:49.504Z,22.20
2023-05-15T21:02:16.151Z,23.20
2023-05-15T21:04:42.929Z,22.90
2023-05-15T21:07:09.752Z,23.00
2023-05-15T21:09:36.323Z,23.00
2023-05-15T21:12:04.047Z,23.30
2023-05-15T21:14:30.829Z,24.90
2023-05-15T21:16:57.677Z,24.80
2023-05-15T21:19:24.444Z,23.90
2023-05-15T21:21:51.184Z,25.20
2023-05-15T21:24:17.829Z,26.40
2023-05-15T21:26:44.477Z,26.40
2023-05-15T21:29:11.733Z,27.20
2023-05-15T21:31:39.357Z,27.10
2023-05-15T21:34:05.958Z,27.20
2023-05-15T21:36:32.523Z,27.10
2023-05-15T21:38:59.088Z,28.50
2023-05-15T21:41:26.105Z,27.40
2023-05-15T21:43:52.904Z,28.60
2023-05-15T21:46:19.468Z,31.30
2023-05-15T21:48:46.525Z,31.60
2023-05-15T21:51:13.207Z,31.70
2023-05-15T21:53:39.824Z,31.80
2023-05-15T21:56:06.896Z,33.00
2023-05-15T21:58:33.590Z,34.90
2023-05-15T22:01:00.121Z,34.40
2023-05-15T22:03:26.900Z,36.50
2023-05-15T22:05:53.595Z,37.20
2023-05-15T22:08:20.384Z,38.10
2023-05-15T22:10:47.568Z,37.80
2023-05-15T22:13:14.365Z,40.50
2023-05-15T22:15:41.070Z,39.30
2023-05-15T22:18:08.084Z,40.30
2023-05-15T22:20:34.705Z,40.30
2023-05-15T22:23:01.441Z,42.60
2023-05-15T22:25:28.110Z,42.60
2023-05-15T22:27:54.675Z,42.20
2023-05-15T22:30:21.332Z,42.70
2023-05-15T22:32:47.994Z,42.70
2023-05-15T22:35:14.832Z,42.70
2023-05-15T22:37:42.071Z,42.50
2023-05-15T22:40:11.675Z,42.60
2023-05-15T22:42:38.255Z,42.90
2023-05-15T22:45:05.988Z,42.80
2023-05-15T22:47:32.809Z,43.40
2023-05-15T22:49:59.854Z,45.50
2023-05-15T22:52:26.790Z,44.70
2023-05-15T22:54:53.789Z,44.40
2023-05-15T22:57:20.458Z,43.80
2023-05-15T22:59:47.047Z,44.40
2023-05-15T23:02:13.576Z,44.30
2023-05-15T23:04:40.181Z,48.00
2023-05-15T23:07:06.997Z,45.90
2023-05-15T23:09:33.654Z,46.10
2023-05-15T23:12:00.786Z,45.90
2023-05-15T23:14:27.515Z,47.30
2023-05-15T23:16:54.103Z,48.90
2023-05-15T23:19:20.913Z,48.90
2023-05-15T23:21:47.700Z,49.70
2023-05-15T23:24:14.258Z,50.40
2023-05-15T23:26:40.938Z,51.30
2023-05-15T23:29:07.552Z,50.90
2023-05-15T23:31:34.307Z,52.50
2023-05-15T23:34:00.993Z,52.40
2023-05-15T23:36:27.525Z,52.20
2023-05-15T23:38:54.073Z,53.60
2023-05-15T23:41:21.938Z,54.00
2023-05-15T23:43:50.465Z,56.80
2023-05-15T23:46:17.714Z,55.90
2023-05-15T23:48:44.374Z,56.50
2023-05-15T23:51:11.456Z,56.40
2023-05-15T23:53:38.267Z,57.30
2023-05-15T23:56:05.308Z,57.50
2023-05-15T23:58:32.214Z,58.50
